sensor_id;sensor_type;location;lat;lon;timestamp;P1;durP1;ratioP1;P2;durP2;ratioP2
48861;SDS011;34681;49.188;-0.374;2023-06-10T00:01:24;25.17;;;11.30;;
48861;SDS011;34681;49.188;-0.374;2023-06-10T00:03:50;16.67;;;10.93;;
48861;SDS011;34681;49.188;-0.374;2023-06-10T00:06:17;17.70;;;9.97;;
48861;SDS011;34681;49.188;-0.374;2023-06-10T00:08:43;21.33;;;11.43;;
48861;SDS011;34681;49.188;-0.374;2023-06-10T00:11:08;16.10;;;10.40;;
48861;SDS011;34681;49.188;-0.374;2023-06-10T00:13:33;20.63;;;10.67;;
48861;SDS011;34681;49.188;-0.374;2023-06-10T00:15:59;21.10;;;10.83;;
48861;SDS011;34681;49.188;-0.374;2023-06-10T00:18:24;16.90;;;10.40;;
48861;SDS011;34681;49.188;-0.374;2023-06-10T00:20:51;18.80;;;11.40;;
48861;SDS011;34681;49.188;-0.374;2023-06-10T00:23:20;19.43;;;10.77;;
48861;SDS011;34681;49.188;-0.374;2023-06-10T00:25:46;21.70;;;10.67;;
48861;SDS011;34681;49.188;-0.374;2023-06-10T00:28:11;21.57;;;11.90;;
48861;SDS011;34681;49.188;-0.374;2023-06-10T00:30:38;18.53;;;10.03;;
48861;SDS011;34681;49.188;-0.374;2023-06-10T00:33:03;17.40;;;10.87;;
48861;SDS011;34681;49.188;-0.374;2023-06-10T00:35:29;19.40;;;10.87;;
48861;SDS011;34681;49.188;-0.374;2023-06-10T00:37:54;25.10;;;11.53;;
48861;SDS011;34681;49.188;-0.374;2023-06-10T00:40:19;21.50;;;11.97;;
48861;SDS011;34681;49.188;-0.374;2023-06-10T00:42:45;19.97;;;11.40;;
48861;SDS011;34681;49.188;-0.374;2023-06-10T00:45:10;23.87;;;11.63;;
48861;SDS011;34681;49.188;-0.374;2023-06-10T00:47:36;21.27;;;11.83;;
48861;SDS011;34681;49.188;-0.374;2023-06-10T00:50:02;14.57;;;9.80;;
48861;SDS011;34681;49.188;-0.374;2023-06-10T00:52:28;18.77;;;11.17;;
48861;SDS011;34681;49.188;-0.374;2023-06-10T00:54:55;21.67;;;11.40;;
48861;SDS011;34681;49.188;-0.374;2023-06-10T00:57:21;21.00;;;11.57;;
48861;SDS011;34681;49.188;-0.374;2023-06-10T00:59:47;16.63;;;10.20;;
48861;SDS011;34681;49.188;-0.374;2023-06-10T01:02:14;15.33;;;9.70;;
48861;SDS011;34681;49.188;-0.374;2023-06-10T01:04:39;20.57;;;10.73;;
48861;SDS011;34681;49.188;-0.374;2023-06-10T01:09:55;26.27;;;10.87;;
48861;SDS011;34681;49.188;-0.374;2023-06-10T01:15:03;15.70;;;10.67;;
48861;SDS011;34681;49.188;-0.374;2023-06-10T01:17:29;19.17;;;11.23;;
48861;SDS011;34681;49.188;-0.374;2023-06-10T01:19:58;13.40;;;10.30;;
48861;SDS011;34681;49.188;-0.374;2023-06-10T01:22:24;19.93;;;10.53;;
48861;SDS011;34681;49.188;-0.374;2023-06-10T01:24:53;18.13;;;10.23;;
48861;SDS011;34681;49.188;-0.374;2023-06-10T01:27:23;15.80;;;10.17;;
48861;SDS011;34681;49.188;-0.374;2023-06-10T01:29:54;18.13;;;12.17;;
48861;SDS011;34681;49.188;-0.374;2023-06-10T01:32:33;18.93;;;10.70;;
48861;SDS011;34681;49.188;-0.374;2023-06-10T01:35:02;18.67;;;11.43;;
48861;SDS011;34681;49.188;-0.374;2023-06-10T01:37:30;17.10;;;10.47;;
48861;SDS011;34681;49.188;-0.374;2023-06-10T01:39:57;17.07;;;9.50;;
48861;SDS011;34681;49.188;-0.374;2023-06-10T01:42:24;23.70;;;11.73;;
48861;SDS011;34681;49.188;-0.374;2023-06-10T01:44:50;15.17;;;10.67;;
48861;SDS011;34681;49.188;-0.374;2023-06-10T01:47:16;18.20;;;10.87;;
48861;SDS011;34681;49.188;-0.374;2023-06-10T01:49:41;18.83;;;11.60;;
48861;SDS011;34681;49.188;-0.374;2023-06-10T01:52:07;28.03;;;11.60;;
48861;SDS011;34681;49.188;-0.374;2023-06-10T01:54:32;19.23;;;11.07;;
48861;SDS011;34681;49.188;-0.374;2023-06-10T01:56:59;18.67;;;11.70;;
48861;SDS011;34681;49.188;-0.374;2023-06-10T01:59:26;20.53;;;10.87;;
48861;SDS011;34681;49.188;-0.374;2023-06-10T02:01:51;18.60;;;10.00;;
48861;SDS011;34681;49.188;-0.374;2023-06-10T02:04:16;14.03;;;10.50;;
48861;SDS011;34681;49.188;-0.374;2023-06-10T02:06:42;20.13;;;11.70;;
48861;SDS011;34681;49.188;-0.374;2023-06-10T02:09:07;19.23;;;10.07;;
48861;SDS011;34681;49.188;-0.374;2023-06-10T02:11:33;15.40;;;10.53;;
48861;SDS011;34681;49.188;-0.374;2023-06-10T02:13:58;17.37;;;10.20;;
48861;SDS011;34681;49.188;-0.374;2023-06-10T02:16:23;18.00;;;11.60;;
48861;SDS011;34681;49.188;-0.374;2023-06-10T02:18:49;20.43;;;11.63;;
48861;SDS011;34681;49.188;-0.374;2023-06-10T02:21:14;20.60;;;10.97;;
48861;SDS011;34681;49.188;-0.374;2023-06-10T02:23:40;19.30;;;10.77;;
48861;SDS011;34681;49.188;-0.374;2023-06-10T02:26:05;23.90;;;13.17;;
48861;SDS011;34681;49.188;-0.374;2023-06-10T02:28:31;21.10;;;12.57;;
48861;SDS011;34681;49.188;-0.374;2023-06-10T02:30:56;19.77;;;11.20;;
48861;SDS011;34681;49.188;-0.374;2023-06-10T02:33:22;20.27;;;10.70;;
48861;SDS011;34681;49.188;-0.374;2023-06-10T02:35:48;17.40;;;10.20;;
48861;SDS011;34681;49.188;-0.374;2023-06-10T02:38:13;15.60;;;10.07;;
48861;SDS011;34681;49.188;-0.374;2023-06-10T02:40:39;20.63;;;10.53;;
48861;SDS011;34681;49.188;-0.374;2023-06-10T02:43:04;18.47;;;10.97;;
48861;SDS011;34681;49.188;-0.374;2023-06-10T02:45:29;18.43;;;11.13;;
48861;SDS011;34681;49.188;-0.374;2023-06-10T02:47:55;21.67;;;10.60;;
48861;SDS011;34681;49.188;-0.374;2023-06-10T02:50:20;17.57;;;10.87;;
48861;SDS011;34681;49.188;-0.374;2023-06-10T02:52:46;22.43;;;11.43;;
48861;SDS011;34681;49.188;-0.374;2023-06-10T02:55:12;19.90;;;10.07;;
48861;SDS011;34681;49.188;-0.374;2023-06-10T02:57:37;18.63;;;10.90;;
48861;SDS011;34681;49.188;-0.374;2023-06-10T03:00:03;16.17;;;9.83;;
48861;SDS011;34681;49.188;-0.374;2023-06-10T03:02:34;13.20;;;9.00;;
48861;SDS011;34681;49.188;-0.374;2023-06-10T03:05:02;14.67;;;9.57;;
48861;SDS011;34681;49.188;-0.374;2023-06-10T03:07:28;12.83;;;9.53;;
48861;SDS011;34681;49.188;-0.374;2023-06-10T03:09:53;16.13;;;9.40;;
48861;SDS011;34681;49.188;-0.374;2023-06-10T03:12:18;19.40;;;10.43;;
48861;SDS011;34681;49.188;-0.374;2023-06-10T03:14:44;15.87;;;10.93;;
48861;SDS011;34681;49.188;-0.374;2023-06-10T03:17:09;15.77;;;10.53;;
48861;SDS011;34681;49.188;-0.374;2023-06-10T03:19:34;25.60;;;13.10;;
48861;SDS011;34681;49.188;-0.374;2023-06-10T03:22:13;21.63;;;11.57;;
48861;SDS011;34681;49.188;-0.374;2023-06-10T03:24:39;15.53;;;9.27;;
48861;SDS011;34681;49.188;-0.374;2023-06-10T03:27:08;18.37;;;11.00;;
48861;SDS011;34681;49.188;-0.374;2023-06-10T03:29:35;20.40;;;11.00;;
48861;SDS011;34681;49.188;-0.374;2023-06-10T03:32:04;23.73;;;12.90;;
48861;SDS011;34681;49.188;-0.374;2023-06-10T03:34:30;15.70;;;10.00;;
48861;SDS011;34681;49.188;-0.374;2023-06-10T03:36:56;16.23;;;10.40;;
48861;SDS011;34681;49.188;-0.374;2023-06-10T03:39:22;13.93;;;9.50;;
48861;SDS011;34681;49.188;-0.374;2023-06-10T03:41:48;13.90;;;9.93;;
48861;SDS011;34681;49.188;-0.374;2023-06-10T03:44:14;15.93;;;10.30;;
48861;SDS011;34681;49.188;-0.374;2023-06-10T03:46:40;16.20;;;9.70;;
48861;SDS011;34681;49.188;-0.374;2023-06-10T03:49:05;13.97;;;9.70;;
48861;SDS011;34681;49.188;-0.374;2023-06-10T03:51:30;17.27;;;11.13;;
48861;SDS011;34681;49.188;-0.374;2023-06-10T03:53:56;19.63;;;11.13;;
48861;SDS011;34681;49.188;-0.374;2023-06-10T03:56:21;23.03;;;11.40;;
48861;SDS011;34681;49.188;-0.374;2023-06-10T03:58:46;17.77;;;10.93;;
48861;SDS011;34681;49.188;-0.374;2023-06-10T04:01:12;20.63;;;10.93;;
48861;SDS011;34681;49.188;-0.374;2023-06-10T04:03:38;21.63;;;11.10;;
48861;SDS011;34681;49.188;-0.374;2023-06-10T04:06:04;16.50;;;12.10;;
48861;SDS011;34681;49.188;-0.374;2023-06-10T04:08:30;20.30;;;10.50;;
48861;SDS011;34681;49.188;-0.374;2023-06-10T04:10:56;23.17;;;12.47;;
48861;SDS011;34681;49.188;-0.374;2023-06-10T04:13:22;19.90;;;10.70;;
48861;SDS011;34681;49.188;-0.374;2023-06-10T04:15:47;14.90;;;11.33;;
48861;SDS011;34681;49.188;-0.374;2023-06-10T04:18:13;17.93;;;10.57;;
48861;SDS011;34681;49.188;-0.374;2023-06-10T04:20:38;23.80;;;11.07;;
48861;SDS011;34681;49.188;-0.374;2023-06-10T04:23:03;19.57;;;10.70;;
48861;SDS011;34681;49.188;-0.374;2023-06-10T04:25:29;18.47;;;10.13;;
48861;SDS011;34681;49.188;-0.374;2023-06-10T04:27:55;15.10;;;10.27;;
48861;SDS011;34681;49.188;-0.374;2023-06-10T04:30:20;16.80;;;10.60;;
48861;SDS011;34681;49.188;-0.374;2023-06-10T04:32:46;20.20;;;10.90;;
48861;SDS011;34681;49.188;-0.374;2023-06-10T04:35:12;16.20;;;10.87;;
48861;SDS011;34681;49.188;-0.374;2023-06-10T04:37:39;12.13;;;9.67;;
48861;SDS011;34681;49.188;-0.374;2023-06-10T04:40:04;16.27;;;9.83;;
48861;SDS011;34681;49.188;-0.374;2023-06-10T04:42:31;18.67;;;10.70;;
48861;SDS011;34681;49.188;-0.374;2023-06-10T04:44:56;24.43;;;11.47;;
48861;SDS011;34681;49.188;-0.374;2023-06-10T04:47:22;18.60;;;11.20;;
48861;SDS011;34681;49.188;-0.374;2023-06-10T04:49:47;21.67;;;11.60;;
48861;SDS011;34681;49.188;-0.374;2023-06-10T04:52:13;20.67;;;12.30;;
48861;SDS011;34681;49.188;-0.374;2023-06-10T04:54:39;20.20;;;10.60;;
48861;SDS011;34681;49.188;-0.374;2023-06-10T04:57:04;17.93;;;11.60;;
48861;SDS011;34681;49.188;-0.374;2023-06-10T04:59:32;24.53;;;11.33;;
48861;SDS011;34681;49.188;-0.374;2023-06-10T05:01:58;15.93;;;10.77;;
48861;SDS011;34681;49.188;-0.374;2023-06-10T05:04:23;23.37;;;12.47;;
48861;SDS011;34681;49.188;-0.374;2023-06-10T05:06:49;29.87;;;12.90;;
48861;SDS011;34681;49.188;-0.374;2023-06-10T05:09:14;22.90;;;12.77;;
48861;SDS011;34681;49.188;-0.374;2023-06-10T05:11:40;21.70;;;12.47;;
48861;SDS011;34681;49.188;-0.374;2023-06-10T05:14:05;18.50;;;13.20;;
48861;SDS011;34681;49.188;-0.374;2023-06-10T05:16:31;20.27;;;13.70;;
48861;SDS011;34681;49.188;-0.374;2023-06-10T05:18:57;21.83;;;11.87;;
48861;SDS011;34681;49.188;-0.374;2023-06-10T05:21:22;17.97;;;11.83;;
48861;SDS011;34681;49.188;-0.374;2023-06-10T05:23:47;30.07;;;14.73;;
48861;SDS011;34681;49.188;-0.374;2023-06-10T05:26:13;17.47;;;11.57;;
48861;SDS011;34681;49.188;-0.374;2023-06-10T05:28:38;22.37;;;12.67;;
48861;SDS011;34681;49.188;-0.374;2023-06-10T05:31:04;30.83;;;14.10;;
48861;SDS011;34681;49.188;-0.374;2023-06-10T05:33:29;25.40;;;12.47;;
48861;SDS011;34681;49.188;-0.374;2023-06-10T05:35:54;24.50;;;11.77;;
48861;SDS011;34681;49.188;-0.374;2023-06-10T05:38:19;16.17;;;11.00;;
48861;SDS011;34681;49.188;-0.374;2023-06-10T05:40:45;23.30;;;12.10;;
48861;SDS011;34681;49.188;-0.374;2023-06-10T05:43:11;25.07;;;12.13;;
48861;SDS011;34681;49.188;-0.374;2023-06-10T05:45:37;17.73;;;11.67;;
48861;SDS011;34681;49.188;-0.374;2023-06-10T05:48:02;19.13;;;11.50;;
48861;SDS011;34681;49.188;-0.374;2023-06-10T05:50:28;19.80;;;11.30;;
48861;SDS011;34681;49.188;-0.374;2023-06-10T05:52:53;25.37;;;11.93;;
48861;SDS011;34681;49.188;-0.374;2023-06-10T05:55:19;21.07;;;10.70;;
48861;SDS011;34681;49.188;-0.374;2023-06-10T05:57:45;15.23;;;11.00;;
48861;SDS011;34681;49.188;-0.374;2023-06-10T06:00:10;14.00;;;9.90;;
48861;SDS011;34681;49.188;-0.374;2023-06-10T06:02:36;22.10;;;10.67;;
48861;SDS011;34681;49.188;-0.374;2023-06-10T06:05:02;12.60;;;9.53;;
48861;SDS011;34681;49.188;-0.374;2023-06-10T06:07:27;15.83;;;10.10;;
48861;SDS011;34681;49.188;-0.374;2023-06-10T06:09:52;17.33;;;12.17;;
48861;SDS011;34681;49.188;-0.374;2023-06-10T06:12:18;18.30;;;11.83;;
48861;SDS011;34681;49.188;-0.374;2023-06-10T06:14:43;17.50;;;9.83;;
48861;SDS011;34681;49.188;-0.374;2023-06-10T06:17:09;17.23;;;10.47;;
48861;SDS011;34681;49.188;-0.374;2023-06-10T06:19:35;18.13;;;10.03;;
48861;SDS011;34681;49.188;-0.374;2023-06-10T06:22:00;16.60;;;9.90;;
48861;SDS011;34681;49.188;-0.374;2023-06-10T06:24:26;20.43;;;12.23;;
48861;SDS011;34681;49.188;-0.374;2023-06-10T06:26:51;15.50;;;10.37;;
48861;SDS011;34681;49.188;-0.374;2023-06-10T06:29:17;18.00;;;12.03;;
48861;SDS011;34681;49.188;-0.374;2023-06-10T06:31:43;21.97;;;10.80;;
48861;SDS011;34681;49.188;-0.374;2023-06-10T06:34:08;14.40;;;10.13;;
48861;SDS011;34681;49.188;-0.374;2023-06-10T06:36:33;13.40;;;10.03;;
48861;SDS011;34681;49.188;-0.374;2023-06-10T06:38:59;22.33;;;9.70;;
48861;SDS011;34681;49.188;-0.374;2023-06-10T06:41:27;16.50;;;10.23;;
48861;SDS011;34681;49.188;-0.374;2023-06-10T06:43:53;19.17;;;11.43;;
48861;SDS011;34681;49.188;-0.374;2023-06-10T06:46:19;15.80;;;9.60;;
48861;SDS011;34681;49.188;-0.374;2023-06-10T06:48:44;17.43;;;10.10;;
48861;SDS011;34681;49.188;-0.374;2023-06-10T06:51:10;22.20;;;11.03;;
48861;SDS011;34681;49.188;-0.374;2023-06-10T06:53:35;18.60;;;11.57;;
48861;SDS011;34681;49.188;-0.374;2023-06-10T06:56:01;15.03;;;10.80;;
48861;SDS011;34681;49.188;-0.374;2023-06-10T06:58:27;18.77;;;11.10;;
48861;SDS011;34681;49.188;-0.374;2023-06-10T07:00:53;17.90;;;11.27;;
48861;SDS011;34681;49.188;-0.374;2023-06-10T07:03:18;13.57;;;9.30;;
48861;SDS011;34681;49.188;-0.374;2023-06-10T07:05:43;13.63;;;9.50;;
48861;SDS011;34681;49.188;-0.374;2023-06-10T07:08:09;12.73;;;9.27;;
48861;SDS011;34681;49.188;-0.374;2023-06-10T07:10:34;17.57;;;9.33;;
48861;SDS011;34681;49.188;-0.374;2023-06-10T07:12:59;14.23;;;9.27;;
48861;SDS011;34681;49.188;-0.374;2023-06-10T07:15:25;16.27;;;11.60;;
48861;SDS011;34681;49.188;-0.374;2023-06-10T07:17:50;15.57;;;10.77;;
48861;SDS011;34681;49.188;-0.374;2023-06-10T07:20:16;17.63;;;11.30;;
48861;SDS011;34681;49.188;-0.374;2023-06-10T07:22:42;13.17;;;10.60;;
48861;SDS011;34681;49.188;-0.374;2023-06-10T07:25:08;20.57;;;11.37;;
48861;SDS011;34681;49.188;-0.374;2023-06-10T07:27:33;12.17;;;9.63;;
48861;SDS011;34681;49.188;-0.374;2023-06-10T07:30:01;14.10;;;9.03;;
48861;SDS011;34681;49.188;-0.374;2023-06-10T07:32:26;12.27;;;9.63;;
48861;SDS011;34681;49.188;-0.374;2023-06-10T07:34:51;16.20;;;9.57;;
48861;SDS011;34681;49.188;-0.374;2023-06-10T07:37:17;14.93;;;8.90;;
48861;SDS011;34681;49.188;-0.374;2023-06-10T07:39:44;17.00;;;10.60;;
48861;SDS011;34681;49.188;-0.374;2023-06-10T07:42:10;14.90;;;9.83;;
48861;SDS011;34681;49.188;-0.374;2023-06-10T07:44:35;13.00;;;8.50;;
48861;SDS011;34681;49.188;-0.374;2023-06-10T07:47:00;14.17;;;9.57;;
48861;SDS011;34681;49.188;-0.374;2023-06-10T07:49:26;12.57;;;9.73;;
48861;SDS011;34681;49.188;-0.374;2023-06-10T07:51:53;13.47;;;8.90;;
48861;SDS011;34681;49.188;-0.374;2023-06-10T07:54:19;15.53;;;10.70;;
48861;SDS011;34681;49.188;-0.374;2023-06-10T07:56:45;14.63;;;10.07;;
48861;SDS011;34681;49.188;-0.374;2023-06-10T07:59:10;12.07;;;8.53;;
48861;SDS011;34681;49.188;-0.374;2023-06-10T08:01:35;15.70;;;8.60;;
48861;SDS011;34681;49.188;-0.374;2023-06-10T08:04:03;18.53;;;10.40;;
48861;SDS011;34681;49.188;-0.374;2023-06-10T08:06:29;14.30;;;9.10;;
48861;SDS011;34681;49.188;-0.374;2023-06-10T08:08:54;10.10;;;8.03;;
48861;SDS011;34681;49.188;-0.374;2023-06-10T08:11:20;10.10;;;8.03;;
48861;SDS011;34681;49.188;-0.374;2023-06-10T08:13:45;12.13;;;9.30;;
48861;SDS011;34681;49.188;-0.374;2023-06-10T08:16:10;11.20;;;7.90;;
48861;SDS011;34681;49.188;-0.374;2023-06-10T08:18:36;12.80;;;9.30;;
48861;SDS011;34681;49.188;-0.374;2023-06-10T08:21:01;17.03;;;9.20;;
48861;SDS011;34681;49.188;-0.374;2023-06-10T08:23:27;15.70;;;9.70;;
48861;SDS011;34681;49.188;-0.374;2023-06-10T08:25:52;17.30;;;9.90;;
48861;SDS011;34681;49.188;-0.374;2023-06-10T08:28:17;15.53;;;9.37;;
48861;SDS011;34681;49.188;-0.374;2023-06-10T08:30:43;13.50;;;10.30;;
48861;SDS011;34681;49.188;-0.374;2023-06-10T08:33:09;10.40;;;8.17;;
48861;SDS011;34681;49.188;-0.374;2023-06-10T08:35:34;12.17;;;8.80;;
48861;SDS011;34681;49.188;-0.374;2023-06-10T08:37:59;17.30;;;10.30;;
48861;SDS011;34681;49.188;-0.374;2023-06-10T08:40:25;16.00;;;9.50;;
48861;SDS011;34681;49.188;-0.374;2023-06-10T08:43:00;14.13;;;10.30;;
48861;SDS011;34681;49.188;-0.374;2023-06-10T08:45:44;15.73;;;9.30;;
48861;SDS011;34681;49.188;-0.374;2023-06-10T08:48:13;11.47;;;9.30;;
48861;SDS011;34681;49.188;-0.374;2023-06-10T08:50:41;9.80;;;7.30;;
48861;SDS011;34681;49.188;-0.374;2023-06-10T08:53:07;14.00;;;8.33;;
48861;SDS011;34681;49.188;-0.374;2023-06-10T08:55:33;11.67;;;9.40;;
48861;SDS011;34681;49.188;-0.374;2023-06-10T08:58:03;13.13;;;8.87;;
48861;SDS011;34681;49.188;-0.374;2023-06-10T09:00:29;15.87;;;9.53;;
48861;SDS011;34681;49.188;-0.374;2023-06-10T09:02:56;12.80;;;9.23;;
48861;SDS011;34681;49.188;-0.374;2023-06-10T09:05:22;10.67;;;8.10;;
48861;SDS011;34681;49.188;-0.374;2023-06-10T09:07:48;12.43;;;8.17;;
48861;SDS011;34681;49.188;-0.374;2023-06-10T09:10:14;12.70;;;9.50;;
48861;SDS011;34681;49.188;-0.374;2023-06-10T09:12:43;10.30;;;7.73;;
48861;SDS011;34681;49.188;-0.374;2023-06-10T09:15:08;13.63;;;8.40;;
48861;SDS011;34681;49.188;-0.374;2023-06-10T09:17:34;14.10;;;8.50;;
48861;SDS011;34681;49.188;-0.374;2023-06-10T09:20:02;13.90;;;7.70;;
48861;SDS011;34681;49.188;-0.374;2023-06-10T09:22:27;10.67;;;8.50;;
48861;SDS011;34681;49.188;-0.374;2023-06-10T09:25:07;8.23;;;6.93;;
48861;SDS011;34681;49.188;-0.374;2023-06-10T09:30:28;9.73;;;7.80;;
48861;SDS011;34681;49.188;-0.374;2023-06-10T09:32:56;14.67;;;7.60;;
48861;SDS011;34681;49.188;-0.374;2023-06-10T09:35:26;11.70;;;8.17;;
48861;SDS011;34681;49.188;-0.374;2023-06-10T09:37:54;12.50;;;8.20;;
48861;SDS011;34681;49.188;-0.374;2023-06-10T09:40:20;11.50;;;8.60;;
48861;SDS011;34681;49.188;-0.374;2023-06-10T09:42:45;10.20;;;7.97;;
48861;SDS011;34681;49.188;-0.374;2023-06-10T09:45:18;10.50;;;7.83;;
48861;SDS011;34681;49.188;-0.374;2023-06-10T09:47:45;9.97;;;7.80;;
48861;SDS011;34681;49.188;-0.374;2023-06-10T09:50:11;9.30;;;8.03;;
48861;SDS011;34681;49.188;-0.374;2023-06-10T09:52:36;8.57;;;6.70;;
48861;SDS011;34681;49.188;-0.374;2023-06-10T09:55:02;10.73;;;7.53;;
48861;SDS011;34681;49.188;-0.374;2023-06-10T09:57:31;8.43;;;7.10;;
48861;SDS011;34681;49.188;-0.374;2023-06-10T09:59:58;10.10;;;7.23;;
48861;SDS011;34681;49.188;-0.374;2023-06-10T10:02:24;9.33;;;8.00;;
48861;SDS011;34681;49.188;-0.374;2023-06-10T10:04:49;9.93;;;7.67;;
48861;SDS011;34681;49.188;-0.374;2023-06-10T10:07:15;8.77;;;7.67;;
48861;SDS011;34681;49.188;-0.374;2023-06-10T10:09:41;8.60;;;7.70;;
48861;SDS011;34681;49.188;-0.374;2023-06-10T10:12:09;9.27;;;7.07;;
48861;SDS011;34681;49.188;-0.374;2023-06-10T10:14:36;8.13;;;7.33;;
48861;SDS011;34681;49.188;-0.374;2023-06-10T10:17:04;9.20;;;7.40;;
48861;SDS011;34681;49.188;-0.374;2023-06-10T10:19:32;9.20;;;7.60;;
48861;SDS011;34681;49.188;-0.374;2023-06-10T10:22:26;8.43;;;7.60;;
48861;SDS011;34681;49.188;-0.374;2023-06-10T10:24:59;8.43;;;7.43;;
48861;SDS011;34681;49.188;-0.374;2023-06-10T10:27:30;9.07;;;7.67;;
48861;SDS011;34681;49.188;-0.374;2023-06-10T10:30:00;8.50;;;7.70;;
48861;SDS011;34681;49.188;-0.374;2023-06-10T10:32:32;9.53;;;7.00;;
48861;SDS011;34681;49.188;-0.374;2023-06-10T10:37:42;9.97;;;7.87;;
48861;SDS011;34681;49.188;-0.374;2023-06-10T10:40:08;11.30;;;7.93;;
48861;SDS011;34681;49.188;-0.374;2023-06-10T10:42:34;9.37;;;7.37;;
48861;SDS011;34681;49.188;-0.374;2023-06-10T10:45:01;10.60;;;7.97;;
48861;SDS011;34681;49.188;-0.374;2023-06-10T10:47:28;10.90;;;6.77;;
48861;SDS011;34681;49.188;-0.374;2023-06-10T10:49:55;10.20;;;7.97;;
48861;SDS011;34681;49.188;-0.374;2023-06-10T10:52:24;7.50;;;6.80;;
48861;SDS011;34681;49.188;-0.374;2023-06-10T10:54:49;7.20;;;6.50;;
48861;SDS011;34681;49.188;-0.374;2023-06-10T10:57:19;9.37;;;7.20;;
48861;SDS011;34681;49.188;-0.374;2023-06-10T11:02:16;8.13;;;7.33;;
48861;SDS011;34681;49.188;-0.374;2023-06-10T11:04:46;7.00;;;6.40;;
48861;SDS011;34681;49.188;-0.374;2023-06-10T11:07:13;9.73;;;7.10;;
48861;SDS011;34681;49.188;-0.374;2023-06-10T11:12:50;8.27;;;7.43;;
48861;SDS011;34681;49.188;-0.374;2023-06-10T11:15:23;10.63;;;7.70;;
48861;SDS011;34681;49.188;-0.374;2023-06-10T11:18:14;14.83;;;9.27;;
48861;SDS011;34681;49.188;-0.374;2023-06-10T11:26:09;14.37;;;9.50;;
48861;SDS011;34681;49.188;-0.374;2023-06-10T11:28:38;11.23;;;8.47;;
48861;SDS011;34681;49.188;-0.374;2023-06-10T11:31:04;17.10;;;13.07;;
48861;SDS011;34681;49.188;-0.374;2023-06-10T11:33:29;17.80;;;10.87;;
48861;SDS011;34681;49.188;-0.374;2023-06-10T11:35:56;15.20;;;11.30;;
48861;SDS011;34681;49.188;-0.374;2023-06-10T11:38:21;11.37;;;10.17;;
48861;SDS011;34681;49.188;-0.374;2023-06-10T11:40:48;19.83;;;11.70;;
48861;SDS011;34681;49.188;-0.374;2023-06-10T11:43:15;20.77;;;12.63;;
48861;SDS011;34681;49.188;-0.374;2023-06-10T11:45:42;18.93;;;13.07;;
48861;SDS011;34681;49.188;-0.374;2023-06-10T11:48:09;15.60;;;11.90;;
48861;SDS011;34681;49.188;-0.374;2023-06-10T11:50:35;15.27;;;11.00;;
48861;SDS011;34681;49.188;-0.374;2023-06-10T11:53:01;12.20;;;10.33;;
48861;SDS011;34681;49.188;-0.374;2023-06-10T11:55:40;20.60;;;11.43;;
48861;SDS011;34681;49.188;-0.374;2023-06-10T11:58:21;10.63;;;9.57;;
48861;SDS011;34681;49.188;-0.374;2023-06-10T12:00:51;19.10;;;13.10;;
48861;SDS011;34681;49.188;-0.374;2023-06-10T12:03:18;11.47;;;10.20;;
48861;SDS011;34681;49.188;-0.374;2023-06-10T12:06:00;18.57;;;12.70;;
48861;SDS011;34681;49.188;-0.374;2023-06-10T12:08:30;10.70;;;9.57;;
48861;SDS011;34681;49.188;-0.374;2023-06-10T12:10:56;10.93;;;9.03;;
48861;SDS011;34681;49.188;-0.374;2023-06-10T12:13:22;12.80;;;9.70;;
48861;SDS011;34681;49.188;-0.374;2023-06-10T12:15:51;12.67;;;11.20;;
48861;SDS011;34681;49.188;-0.374;2023-06-10T12:18:17;13.40;;;9.20;;
48861;SDS011;34681;49.188;-0.374;2023-06-10T12:20:43;14.10;;;11.23;;
48861;SDS011;34681;49.188;-0.374;2023-06-10T12:23:09;17.20;;;11.43;;
48861;SDS011;34681;49.188;-0.374;2023-06-10T12:25:35;14.40;;;9.80;;
48861;SDS011;34681;49.188;-0.374;2023-06-10T12:28:02;22.83;;;11.93;;
48861;SDS011;34681;49.188;-0.374;2023-06-10T12:30:27;13.93;;;10.83;;
48861;SDS011;34681;49.188;-0.374;2023-06-10T12:32:53;16.53;;;11.50;;
48861;SDS011;34681;49.188;-0.374;2023-06-10T12:35:23;12.90;;;10.23;;
48861;SDS011;34681;49.188;-0.374;2023-06-10T12:42:54;13.30;;;9.20;;
48861;SDS011;34681;49.188;-0.374;2023-06-10T12:45:34;11.07;;;9.27;;
48861;SDS011;34681;49.188;-0.374;2023-06-10T12:48:19;14.13;;;9.03;;
48861;SDS011;34681;49.188;-0.374;2023-06-10T12:50:53;13.00;;;9.10;;
48861;SDS011;34681;49.188;-0.374;2023-06-10T12:53:22;10.17;;;9.00;;
48861;SDS011;34681;49.188;-0.374;2023-06-10T12:55:49;16.37;;;12.93;;
48861;SDS011;34681;49.188;-0.374;2023-06-10T12:58:15;14.70;;;12.33;;
48861;SDS011;34681;49.188;-0.374;2023-06-10T13:00:41;15.67;;;12.17;;
48861;SDS011;34681;49.188;-0.374;2023-06-10T13:03:07;13.97;;;10.20;;
48861;SDS011;34681;49.188;-0.374;2023-06-10T13:05:37;16.53;;;11.57;;
48861;SDS011;34681;49.188;-0.374;2023-06-10T13:08:04;14.00;;;9.90;;
48861;SDS011;34681;49.188;-0.374;2023-06-10T13:10:31;16.13;;;10.50;;
48861;SDS011;34681;49.188;-0.374;2023-06-10T13:12:56;12.70;;;10.57;;
48861;SDS011;34681;49.188;-0.374;2023-06-10T13:15:22;16.70;;;10.80;;
48861;SDS011;34681;49.188;-0.374;2023-06-10T13:17:47;16.37;;;11.70;;
48861;SDS011;34681;49.188;-0.374;2023-06-10T13:20:14;18.17;;;13.70;;
48861;SDS011;34681;49.188;-0.374;2023-06-10T13:22:41;18.30;;;11.70;;
48861;SDS011;34681;49.188;-0.374;2023-06-10T13:25:07;16.00;;;11.43;;
48861;SDS011;34681;49.188;-0.374;2023-06-10T13:27:33;19.83;;;11.83;;
48861;SDS011;34681;49.188;-0.374;2023-06-10T13:29:59;13.40;;;9.90;;
48861;SDS011;34681;49.188;-0.374;2023-06-10T13:32:25;18.10;;;12.10;;
48861;SDS011;34681;49.188;-0.374;2023-06-10T13:34:50;14.57;;;11.77;;
48861;SDS011;34681;49.188;-0.374;2023-06-10T13:37:15;15.10;;;11.73;;
48861;SDS011;34681;49.188;-0.374;2023-06-10T13:39:44;16.67;;;10.30;;
48861;SDS011;34681;49.188;-0.374;2023-06-10T13:42:13;15.97;;;11.30;;
48861;SDS011;34681;49.188;-0.374;2023-06-10T13:44:39;17.60;;;12.13;;
48861;SDS011;34681;49.188;-0.374;2023-06-10T13:47:04;19.57;;;13.17;;
48861;SDS011;34681;49.188;-0.374;2023-06-10T13:49:30;17.60;;;11.10;;
48861;SDS011;34681;49.188;-0.374;2023-06-10T13:51:56;21.73;;;14.43;;
48861;SDS011;34681;49.188;-0.374;2023-06-10T13:54:21;17.37;;;12.10;;
48861;SDS011;34681;49.188;-0.374;2023-06-10T13:56:47;17.20;;;12.87;;
48861;SDS011;34681;49.188;-0.374;2023-06-10T13:59:12;15.20;;;11.20;;
48861;SDS011;34681;49.188;-0.374;2023-06-10T14:01:38;13.87;;;11.20;;
48861;SDS011;34681;49.188;-0.374;2023-06-10T14:04:04;15.00;;;10.23;;
48861;SDS011;34681;49.188;-0.374;2023-06-10T14:06:29;13.50;;;10.90;;
48861;SDS011;34681;49.188;-0.374;2023-06-10T14:08:55;18.73;;;12.87;;
48861;SDS011;34681;49.188;-0.374;2023-06-10T14:11:21;16.47;;;12.03;;
48861;SDS011;34681;49.188;-0.374;2023-06-10T14:13:46;23.20;;;14.17;;
48861;SDS011;34681;49.188;-0.374;2023-06-10T14:16:12;23.63;;;17.33;;
48861;SDS011;34681;49.188;-0.374;2023-06-10T14:18:38;20.13;;;15.57;;
48861;SDS011;34681;49.188;-0.374;2023-06-10T14:21:03;22.20;;;15.00;;
48861;SDS011;34681;49.188;-0.374;2023-06-10T14:23:29;16.60;;;13.57;;
48861;SDS011;34681;49.188;-0.374;2023-06-10T14:25:54;21.40;;;13.30;;
48861;SDS011;34681;49.188;-0.374;2023-06-10T14:28:19;17.90;;;13.80;;
48861;SDS011;34681;49.188;-0.374;2023-06-10T14:30:45;16.47;;;14.60;;
48861;SDS011;34681;49.188;-0.374;2023-06-10T14:33:10;25.37;;;14.30;;
48861;SDS011;34681;49.188;-0.374;2023-06-10T14:35:35;33.43;;;16.90;;
48861;SDS011;34681;49.188;-0.374;2023-06-10T14:38:01;21.90;;;15.43;;